createdAt,value
2023-01-06T00:00:12.215Z,97138.69
2023-01-06T00:02:41.893Z,97137.84
2023-01-06T00:05:11.490Z,97133.91
2023-01-06T00:07:40.206Z,97110.88
2023-01-06T00:10:10.326Z,97123.72
2023-01-06T00:12:39.066Z,97133.69
2023-01-06T00:15:08.929Z,97119.56
2023-01-06T00:17:37.242Z,97123.50
2023-01-06T00:20:08.521Z,97110.47
2023-01-06T00:22:37.127Z,97115.00
2023-01-06T00:25:07.128Z,97090.31
2023-01-06T00:27:35.835Z,97111.25
2023-01-06T00:30:04.413Z,97116.88
2023-01-06T00:32:34.143Z,97114.59
2023-01-06T00:35:03.067Z,97118.97
2023-01-06T00:37:33.093Z,97112.75
2023-01-06T00:40:02.146Z,97103.66
2023-01-06T00:42:30.555Z,97106.59
2023-01-06T00:44:59.475Z,97105.13
2023-01-06T00:47:28.626Z,97098.06
2023-01-06T00:49:56.945Z,97102.47
2023-01-06T00:52:25.721Z,97093.72
2023-01-06T00:54:55.415Z,97087.09
2023-01-06T00:57:24.690Z,97090.19
2023-01-06T00:59:53.587Z,97087.72
2023-01-06T01:02:22.654Z,97085.00
2023-01-06T01:04:51.710Z,97085.03
2023-01-06T01:07:20.083Z,97067.41
2023-01-06T01:09:48.660Z,97082.75
2023-01-06T01:12:19.161Z,97088.16
2023-01-06T01:14:49.168Z,97097.25
2023-01-06T01:17:20.703Z,97086.66
2023-01-06T01:19:50.698Z,97085.63
2023-01-06T01:22:19.570Z,97097.25
2023-01-06T01:24:47.937Z,97096.63
2023-01-06T01:27:19.694Z,97098.72
2023-01-06T01:29:48.035Z,97090.63
2023-01-06T01:32:16.985Z,97103.28
2023-01-06T01:34:45.801Z,97102.03
2023-01-06T01:37:14.247Z,97091.00
2023-01-06T01:39:43.500Z,97091.00
2023-01-06T01:42:19.456Z,97090.19
2023-01-06T01:45:04.202Z,97083.75
2023-01-06T01:47:49.035Z,97072.78
2023-01-06T01:50:32.081Z,97079.38
2023-01-06T01:53:04.993Z,97072.94
2023-01-06T01:55:35.286Z,97064.69
2023-01-06T01:58:09.069Z,97064.25
2023-01-06T02:00:41.367Z,97066.97
2023-01-06T02:03:11.393Z,97079.22
2023-01-06T02:05:45.204Z,97068.44
2023-01-06T02:08:23.771Z,97070.72
2023-01-06T02:10:53.033Z,97060.97
2023-01-06T02:13:22.931Z,97068.00
2023-01-06T02:16:01.539Z,97065.53
2023-01-06T02:18:54.710Z,97068.00
2023-01-06T02:21:38.638Z,97065.53
2023-01-06T02:24:26.809Z,97052.25
2023-01-06T02:27:35.304Z,97061.19
2023-01-06T02:30:37.066Z,97056.16
2023-01-06T02:33:16.063Z,97043.50
2023-01-06T02:36:11.871Z,97045.38
2023-01-06T02:38:56.097Z,97046.66
2023-01-06T02:41:34.704Z,97039.59
2023-01-06T02:44:14.352Z,97042.91
2023-01-06T02:47:10.031Z,97039.97
2023-01-06T02:49:48.365Z,97036.47
2023-01-06T02:52:24.416Z,97036.66
2023-01-06T02:54:58.259Z,97029.19
2023-01-06T02:57:31.706Z,97030.03
2023-01-06T03:00:07.798Z,97026.47
2023-01-06T03:02:39.500Z,97015.91
2023-01-06T03:05:13.166Z,97007.81
2023-01-06T03:07:44.200Z,97011.56
2023-01-06T03:10:16.357Z,97019.63
2023-01-06T03:12:52.741Z,97020.09
2023-01-06T03:15:22.790Z,97018.44
2023-01-06T03:17:51.693Z,97008.47
2023-01-06T03:20:23.011Z,97009.47
2023-01-06T03:22:51.367Z,97011.16
2023-01-06T03:25:20.681Z,97010.72
2023-01-06T03:27:50.500Z,97003.28
2023-01-06T03:30:20.669Z,97003.28
2023-01-06T03:33:00.069Z,96997.06
2023-01-06T03:35:48.718Z,97010.75
2023-01-06T03:38:28.248Z,97003.09
2023-01-06T03:41:03.694Z,96998.72
2023-01-06T03:43:40.159Z,96992.91
2023-01-06T03:46:22.619Z,96986.28
2023-01-06T03:48:59.327Z,96994.38
2023-01-06T03:51:45.619Z,96995.81
2023-01-06T03:54:30.801Z,96993.75
2023-01-06T03:57:06.563Z,96993.13
2023-01-06T03:59:39.241Z,96997.69
2023-01-06T04:02:09.869Z,96995.63
2023-01-06T04:04:38.704Z,97002.69
2023-01-06T04:07:09.756Z,97004.72
2023-01-06T04:09:41.990Z,97007.00
2023-01-06T04:12:27.550Z,97009.31
2023-01-06T04:14:56.472Z,97008.03
2023-01-06T04:17:24.896Z,97004.72
2023-01-06T04:19:54.427Z,97004.50
2023-01-06T04:22:24.705Z,97017.56
2023-01-06T04:24:53.125Z,97017.13
2023-01-06T04:27:21.595Z,97006.97
2023-01-06T04:29:50.875Z,97003.03
2023-01-06T04:32:19.440Z,96997.44
2023-01-06T04:34:48.576Z,97005.09
2023-01-06T04:37:17.664Z,96994.72
2023-01-06T04:39:47.414Z,96987.28
2023-01-06T04:42:16.871Z,96990.56
2023-01-06T04:44:45.238Z,96988.91
2023-01-06T04:47:14.260Z,96984.75
2023-01-06T04:49:42.891Z,96991.59
2023-01-06T04:52:11.561Z,96992.66
2023-01-06T04:54:40.452Z,96988.50
2023-01-06T04:57:10.137Z,96985.19
2023-01-06T04:59:39.149Z,96988.50
2023-01-06T05:02:07.547Z,96955.53
2023-01-06T05:04:46.955Z,96979.81
2023-01-06T05:07:16.327Z,96988.94
2023-01-06T05:09:45.313Z,96985.22
2023-01-06T05:12:15.010Z,96989.97
2023-01-06T05:14:43.894Z,96987.09
2023-01-06T05:17:12.626Z,96985.22
2023-01-06T05:19:42.927Z,96991.63
2023-01-06T05:22:12.343Z,96991.22
2023-01-06T05:24:40.638Z,96994.34
2023-01-06T05:27:09.872Z,96980.47
2023-01-06T05:29:39.594Z,96985.44
2023-01-06T05:32:08.796Z,96987.75
2023-01-06T05:34:37.136Z,96985.44
2023-01-06T05:37:06.317Z,96989.19
2023-01-06T05:39:34.710Z,96993.13
2023-01-06T05:42:04.006Z,96974.88
2023-01-06T05:44:32.656Z,96995.63
2023-01-06T05:47:03.251Z,96949.38
2023-01-06T05:49:31.643Z,96974.06
2023-01-06T05:52:00.072Z,96986.69
2023-01-06T05:54:28.443Z,96983.16
2023-01-06T05:56:57.876Z,96991.91
2023-01-06T05:59:26.759Z,96998.13
2023-01-06T06:01:55.333Z,96992.09
2023-01-06T06:04:25.112Z,96992.31
2023-01-06T06:06:53.740Z,96996.25
2023-01-06T06:09:22.082Z,96987.72
2023-01-06T06:11:51.919Z,97002.25
2023-01-06T06:14:20.769Z,96991.25
2023-01-06T06:16:49.231Z,96999.78
2023-01-06T06:19:18.148Z,97001.22
2023-01-06T06:21:47.841Z,97000.81
2023-01-06T06:24:16.517Z,96992.50
2023-01-06T06:26:45.605Z,96996.44
2023-01-06T06:29:14.504Z,96994.56
2023-01-06T06:31:44.164Z,96965.56
2023-01-06T06:34:14.594Z,96986.69
2023-01-06T06:36:43.502Z,96985.47
2023-01-06T06:39:13.593Z,96974.69
2023-01-06T06:41:42.139Z,96973.63
2023-01-06T06:44:11.215Z,96979.84
2023-01-06T06:46:40.107Z,96978.00
2023-01-06T06:49:08.687Z,96969.06
2023-01-06T06:51:37.966Z,96978.22
2023-01-06T06:54:06.571Z,96985.03
2023-01-06T06:56:37.151Z,96986.28
2023-01-06T06:59:05.902Z,96987.53
2023-01-06T07:01:35.404Z,96983.59
2023-01-06T07:04:03.793Z,96982.13
2023-01-06T07:06:33.185Z,96979.66
2023-01-06T07:09:01.521Z,96981.31
2023-01-06T07:11:30.915Z,96978.59
2023-01-06T07:14:01.353Z,96981.53
2023-01-06T07:16:30.831Z,96979.44
2023-01-06T07:18:59.710Z,96977.59
2023-01-06T07:21:28.020Z,96982.56
2023-01-06T07:23:56.665Z,96978.22
2023-01-06T07:26:25.015Z,96976.34
2023-01-06T07:28:54.001Z,96978.81
2023-01-06T07:31:23.824Z,96981.13
2023-01-06T07:33:53.165Z,96981.72
2023-01-06T07:36:21.983Z,96985.66
2023-01-06T07:38:50.310Z,96983.16
2023-01-06T07:41:19.192Z,96980.28
2023-01-06T07:43:47.545Z,96990.25
2023-01-06T07:46:16.641Z,96988.38
2023-01-06T07:48:46.759Z,96988.59
2023-01-06T07:51:15.524Z,96995.19
2023-01-06T07:53:44.001Z,96993.56
2023-01-06T07:56:13.189Z,96995.63
2023-01-06T07:58:41.670Z,96987.53
2023-01-06T08:01:10.458Z,96990.44
2023-01-06T08:03:38.972Z,96991.06
2023-01-06T08:06:10.687Z,96996.25
2023-01-06T08:09:33.104Z,96987.13
2023-01-06T08:12:07.112Z,96942.13
2023-01-06T08:14:35.822Z,96905.88
2023-01-06T08:17:04.622Z,96965.34
2023-01-06T08:19:33.610Z,96981.94
2023-01-06T08:22:03.886Z,96925.75
2023-01-06T08:24:32.784Z,96941.72
2023-01-06T08:27:01.653Z,96965.34
2023-01-06T08:29:37.474Z,96954.94
2023-01-06T08:32:12.050Z,96931.09
2023-01-06T08:34:42.338Z,96933.94
2023-01-06T08:37:14.401Z,96911.09
2023-01-06T08:39:43.023Z,96975.41
2023-01-06T08:42:11.803Z,96888.00
2023-01-06T08:45:03.246Z,96953.28
2023-01-06T08:48:12.931Z,96973.78
2023-01-06T08:54:32.524Z,96980.38
2023-01-06T08:57:34.211Z,96996.69
2023-01-06T09:00:28.062Z,96968.72
2023-01-06T09:03:17.499Z,96966.53
2023-01-06T09:06:19.045Z,96934.88
2023-01-06T09:08:48.623Z,96961.06
2023-01-06T09:11:18.975Z,96983.31
2023-01-06T09:13:48.382Z,96937.56
2023-01-06T09:16:31.093Z,96981.56
2023-01-06T09:19:11.077Z,96946.72
2023-01-06T09:24:50.345Z,96951.50
2023-01-06T09:28:34.958Z,96943.00
2023-01-06T09:31:03.643Z,97014.84
2023-01-06T09:41:46.098Z,96946.16
2023-01-06T09:44:23.963Z,96944.00
2023-01-06T09:47:07.021Z,96955.00
2023-01-06T10:08:05.547Z,96972.22
2023-01-06T10:18:52.617Z,97018.97
2023-01-06T10:29:06.269Z,96934.88
2023-01-06T11:00:56.549Z,96999.72
2023-01-06T11:07:37.498Z,96953.25
2023-01-06T11:59:35.635Z,96931.22
2023-01-06T12:11:45.254Z,96842.09
2023-01-06T12:15:18.514Z,96850.16
2023-01-06T12:30:53.142Z,96839.31
2023-01-06T12:34:03.115Z,96833.59
2023-01-06T12:37:18.091Z,96916.28
2023-01-06T12:40:32.920Z,96920.31
2023-01-06T12:43:58.034Z,96874.84
2023-01-06T12:47:29.775Z,96895.13
2023-01-06T12:51:34.197Z,96903.16
2023-01-06T12:54:30.340Z,96851.53
2023-01-06T13:01:16.980Z,96861.31
2023-01-06T13:08:05.075Z,96855.63
2023-01-06T13:18:17.272Z,96853.63
2023-01-06T13:26:08.514Z,96935.59
2023-01-06T13:45:04.440Z,96961.03
2023-01-06T13:48:29.063Z,96881.91
2023-01-06T13:56:27.257Z,96963.78
2023-01-06T13:59:33.251Z,96964.84
2023-01-06T14:02:55.729Z,96964.09
2023-01-06T14:09:47.098Z,96955.81
2023-01-06T14:12:23.608Z,96950.47
2023-01-06T14:15:01.337Z,96959.56
2023-01-06T14:17:33.340Z,96924.59
2023-01-06T14:20:07.050Z,96926.84
2023-01-06T14:22:36.759Z,96909.00
2023-01-06T14:25:09.243Z,96956.13
2023-01-06T14:28:09.041Z,96953.66
2023-01-06T14:30:38.436Z,96914.84
2023-01-06T14:33:31.393Z,96891.09
2023-01-06T14:36:05.576Z,96920.41
2023-01-06T14:38:42.343Z,96907.19
2023-01-06T14:41:21.543Z,96949.50
2023-01-06T14:44:08.697Z,96946.19
2023-01-06T14:46:42.917Z,96912.28
2023-01-06T14:49:18.131Z,96948.44
2023-01-06T14:51:48.401Z,96955.53
2023-01-06T14:54:23.069Z,96949.25
2023-01-06T14:56:55.887Z,96951.38
2023-01-06T14:59:28.553Z,96884.28
2023-01-06T15:02:02.612Z,96913.44
2023-01-06T15:04:33.958Z,96939.38
2023-01-06T15:07:15.938Z,96957.66
2023-01-06T15:09:50.242Z,96899.78
2023-01-06T15:12:29.044Z,96870.81
2023-01-06T15:15:20.520Z,96934.94
2023-01-06T15:17:49.307Z,96958.19
2023-01-06T15:20:18.398Z,96911.34
2023-01-06T15:22:53.641Z,96888.38
2023-01-06T15:25:27.503Z,96924.44
2023-01-06T15:30:51.304Z,96912.09
2023-01-06T15:33:20.735Z,96916.50
2023-01-06T15:35:51.853Z,96961.88
2023-01-06T15:38:26.274Z,96963.44
2023-01-06T15:40:55.275Z,96953.00
2023-01-06T15:43:26.842Z,96966.38
2023-01-06T15:46:04.526Z,96954.88
2023-01-06T15:48:35.290Z,96976.81
2023-01-06T15:51:12.124Z,96966.84
2023-01-06T15:53:40.714Z,96969.34
2023-01-06T15:56:19.312Z,96932.47
2023-01-06T15:58:50.838Z,96991.28
2023-01-06T16:01:23.398Z,96982.56
2023-01-06T16:03:54.135Z,96997.75
2023-01-06T16:06:27.074Z,96988.41
2023-01-06T16:09:16.170Z,96981.41
2023-01-06T16:11:59.173Z,96983.91
2023-01-06T16:14:32.760Z,96963.47
2023-01-06T16:17:07.937Z,97011.28
2023-01-06T16:19:39.073Z,97011.06
2023-01-06T16:22:18.538Z,96950.13
2023-01-06T16:24:54.798Z,96994.38
2023-01-06T16:27:26.422Z,97014.53
2023-01-06T16:30:11.337Z,97018.28
2023-01-06T16:32:41.841Z,97013.94
2023-01-06T16:35:13.718Z,97010.16
2023-01-06T16:37:42.211Z,97008.28
2023-01-06T16:40:13.116Z,97009.09
2023-01-06T16:42:44.812Z,97009.31
2023-01-06T16:45:17.579Z,96988.44
2023-01-06T16:47:46.588Z,97012.66
2023-01-06T16:50:19.795Z,97001.66
2023-01-06T16:52:53.673Z,97006.03
2023-01-06T16:55:24.650Z,96945.69
2023-01-06T16:57:55.576Z,96964.56
2023-01-06T17:00:25.006Z,96982.41
2023-01-06T17:02:55.412Z,96943.31
2023-01-06T17:05:28.230Z,96936.34
2023-01-06T17:07:59.643Z,97019.13
2023-01-06T17:10:29.456Z,96989.69
2023-01-06T17:13:20.492Z,96951.22
2023-01-06T17:15:52.845Z,97036.59
2023-01-06T17:18:24.794Z,96993.53
2023-01-06T17:21:00.444Z,97019.19
2023-01-06T17:23:29.007Z,97026.13
2023-01-06T17:26:03.518Z,97030.06
2023-01-06T17:28:33.597Z,96994.13
2023-01-06T17:31:03.233Z,97000.75
2023-01-06T17:33:32.630Z,96975.09
2023-01-06T17:36:02.984Z,96991.66
2023-01-06T17:38:32.639Z,97038.47
2023-01-06T17:41:01.094Z,96992.09
2023-01-06T17:43:34.054Z,97036.84
2023-01-06T17:46:16.528Z,97051.13
2023-01-06T17:48:45.629Z,97024.66
2023-01-06T17:51:16.916Z,96995.09
2023-01-06T17:54:03.034Z,96997.56
2023-01-06T17:56:33.273Z,97038.59
2023-01-06T17:59:12.277Z,97011.09
2023-01-06T18:01:43.191Z,96990.22
2023-01-06T18:04:15.479Z,97056.72
2023-01-06T18:06:53.041Z,97020.03
2023-01-06T18:09:25.529Z,97034.19
2023-01-06T18:11:59.259Z,97032.06
2023-01-06T18:14:33.572Z,96976.00
2023-01-06T18:17:18.065Z,97056.13
2023-01-06T18:19:46.678Z,97054.25
2023-01-06T18:22:18.819Z,97056.97
2023-01-06T18:24:48.794Z,97016.69
2023-01-06T18:27:25.213Z,97045.47
2023-01-06T18:29:53.959Z,97060.59
2023-01-06T18:32:32.891Z,97062.53
2023-01-06T18:35:03.587Z,97003.31
2023-01-06T18:37:34.581Z,97039.13
2023-01-06T18:40:05.893Z,97024.66
2023-01-06T18:42:39.049Z,97004.78
2023-01-06T18:45:19.566Z,97016.38
2023-01-06T18:47:53.885Z,97023.84
2023-01-06T18:50:32.552Z,96984.50
2023-01-06T18:53:06.887Z,97053.81
2023-01-06T18:55:38.871Z,97054.28
2023-01-06T18:58:23.731Z,96986.91
2023-01-06T19:00:54.770Z,97059.63
2023-01-06T19:03:35.981Z,97053.41
2023-01-06T19:06:34.744Z,97045.09
2023-01-06T19:09:11.333Z,96986.53
2023-01-06T19:11:41.603Z,97032.00
2023-01-06T19:14:17.713Z,97038.63
2023-01-06T19:16:52.752Z,97000.09
2023-01-06T19:19:27.908Z,97060.19
2023-01-06T19:22:11.483Z,97053.13
2023-01-06T19:24:44.345Z,97001.94
2023-01-06T19:27:33.927Z,97006.47
2023-01-06T19:30:35.469Z,97023.84
2023-01-06T19:33:25.204Z,97042.13
2023-01-06T19:36:04.020Z,97027.00
2023-01-06T19:38:37.476Z,97000.91
2023-01-06T19:41:11.455Z,96991.56
2023-01-06T19:43:40.003Z,97049.59
2023-01-06T19:46:19.900Z,97009.81
2023-01-06T19:48:48.507Z,97003.75
2023-01-06T19:51:30.578Z,97033.34
2023-01-06T19:54:01.192Z,97010.53
2023-01-06T19:56:35.649Z,97033.72
2023-01-06T19:59:10.633Z,97001.28
2023-01-06T20:01:40.374Z,97017.78
2023-01-06T20:04:21.067Z,96990.50
2023-01-06T20:06:51.631Z,97046.59
2023-01-06T20:09:22.167Z,96996.97
2023-01-06T20:11:53.603Z,96997.41
2023-01-06T20:14:22.744Z,96990.34
2023-01-06T20:16:52.684Z,97000.09
2023-01-06T20:19:22.005Z,97034.47
2023-01-06T20:21:52.597Z,97042.06
2023-01-06T20:24:21.150Z,97045.78
2023-01-06T20:26:51.052Z,97049.91
2023-01-06T20:29:20.033Z,97057.63
2023-01-06T20:31:49.219Z,96983.31
2023-01-06T20:34:18.181Z,96996.16
2023-01-06T20:36:46.738Z,97045.44
2023-01-06T20:39:16.836Z,97053.50
2023-01-06T20:41:45.448Z,97051.00
2023-01-06T20:44:14.842Z,97013.53
2023-01-06T20:46:43.608Z,97062.00
2023-01-06T20:49:13.130Z,97011.03
2023-01-06T20:51:42.770Z,97021.34
2023-01-06T20:54:11.344Z,97060.97
2023-01-06T20:56:42.922Z,97055.00
2023-01-06T20:59:12.809Z,97053.72
2023-01-06T21:01:41.555Z,97028.88
2023-01-06T21:04:10.871Z,97062.38
2023-01-06T21:06:39.819Z,97050.59
2023-01-06T21:09:08.447Z,96988.91
2023-01-06T21:11:37.638Z,97050.41
2023-01-06T21:14:07.937Z,97055.81
2023-01-06T21:16:37.255Z,97018.53
2023-01-06T21:19:05.593Z,97027.59
2023-01-06T21:21:34.357Z,97026.78
2023-01-06T21:24:03.241Z,97046.34
2023-01-06T21:26:31.565Z,97014.56
2023-01-06T21:29:00.516Z,97049.09
2023-01-06T21:31:30.179Z,97044.91
2023-01-06T21:33:58.799Z,97037.59
2023-01-06T21:36:27.601Z,97047.06
2023-01-06T21:38:56.073Z,97056.19
2023-01-06T21:41:42.335Z,97048.47
2023-01-06T21:44:10.730Z,97045.28
2023-01-06T21:46:41.238Z,97037.41
2023-01-06T21:49:09.720Z,96971.22
2023-01-06T21:51:39.498Z,97002.53
2023-01-06T21:54:07.918Z,97031.19
2023-01-06T21:56:36.973Z,97025.00
2023-01-06T21:59:05.694Z,97036.59
2023-01-06T22:01:34.634Z,97034.44
2023-01-06T22:04:05.168Z,97036.03
2023-01-06T22:06:35.790Z,97002.47
2023-01-06T22:09:07.968Z,97021.88
2023-01-06T22:11:39.246Z,97032.81
2023-01-06T22:14:10.080Z,97027.31
2023-01-06T22:16:40.424Z,97032.78
2023-01-06T22:19:13.245Z,96993.69
2023-01-06T22:21:44.051Z,97033.06
2023-01-06T22:24:16.104Z,96984.03
2023-01-06T22:26:44.498Z,97034.59
2023-01-06T22:29:12.863Z,96979.03
2023-01-06T22:31:41.544Z,97029.19
2023-01-06T22:34:11.766Z,97035.50
2023-01-06T22:36:40.091Z,97033.00
2023-01-06T22:39:09.190Z,97045.44
2023-01-06T22:41:37.726Z,97036.03
2023-01-06T22:44:06.482Z,97040.00
2023-01-06T22:46:34.891Z,97031.81
2023-01-06T22:49:03.787Z,97031.59
2023-01-06T22:51:33.501Z,97035.72
2023-01-06T22:54:02.428Z,97027.22
2023-01-06T22:56:31.065Z,97011.78
2023-01-06T22:59:01.138Z,97037.22
2023-01-06T23:01:29.927Z,97018.41
2023-01-06T23:04:00.177Z,97026.84
2023-01-06T23:06:29.438Z,97021.25
2023-01-06T23:09:01.059Z,97030.72
2023-01-06T23:11:32.896Z,97031.25
2023-01-06T23:14:02.624Z,97032.47
2023-01-06T23:16:31.087Z,97024.19
2023-01-06T23:19:00.399Z,96991.66
2023-01-06T23:21:31.252Z,97012.75
2023-01-06T23:24:04.763Z,97010.88
2023-01-06T23:26:35.307Z,97029.31
2023-01-06T23:29:03.912Z,97022.72
2023-01-06T23:31:36.446Z,97018.13
2023-01-06T23:34:07.884Z,97026.00
2023-01-06T23:36:38.233Z,97024.72
2023-01-06T23:39:12.569Z,96998.63
2023-01-06T23:41:41.522Z,97016.41
2023-01-06T23:44:16.112Z,96996.13
2023-01-06T23:46:45.664Z,97006.06
2023-01-06T23:49:17.164Z,97010.22
2023-01-06T23:51:45.978Z,97008.19
2023-01-06T23:54:17.654Z,96997.84
2023-01-06T23:56:46.349Z,96949.84
2023-01-06T23:59:15.228Z,97000.28
